createdAt,value
2022-08-07T00:02:35.467Z,3.63
2022-08-07T00:04:18.049Z,2.70
2022-08-07T00:07:09.376Z,3.38
2022-08-07T00:10:19.071Z,3.25
2022-08-07T00:13:17.529Z,3.50
2022-08-07T00:16:05.313Z,4.57
2022-08-07T00:18:34.139Z,3.90
2022-08-07T00:21:55.447Z,3.28
2022-08-07T00:24:13.066Z,3.35
2022-08-07T00:27:06.559Z,3.30
2022-08-07T00:29:37.124Z,3.53
2022-08-07T00:32:05.732Z,3.30
2022-08-07T00:34:32.590Z,3.50
2022-08-07T00:37:02.010Z,3.38
2022-08-07T00:39:45.833Z,3.80
2022-08-07T00:42:29.078Z,2.78
2022-08-07T00:44:55.772Z,3.95
2022-08-07T00:48:25.086Z,4.13
2022-08-07T00:50:59.220Z,2.53
2022-08-07T00:53:26.705Z,2.93
2022-08-07T00:56:03.160Z,3.15
2022-08-07T00:58:30.696Z,2.80
2022-08-07T01:01:09.017Z,2.42
2022-08-07T01:03:57.277Z,2.85
2022-08-07T01:06:25.227Z,2.83
2022-08-07T01:08:53.809Z,3.03
2022-08-07T01:12:28.860Z,2.78
2022-08-07T01:16:01.189Z,3.25
2022-08-07T01:18:20.980Z,3.70
2022-08-07T01:21:26.054Z,2.53
2022-08-07T01:24:25.805Z,2.80
2022-08-07T01:27:02.784Z,4.15
2022-08-07T01:29:50.498Z,3.13
2022-08-07T01:32:17.639Z,4.15
2022-08-07T01:34:47.361Z,3.73
2022-08-07T01:37:33.818Z,3.00
2022-08-07T01:40:14.855Z,3.83
2022-08-07T01:43:00.949Z,3.08
2022-08-07T01:45:37.166Z,2.65
2022-08-07T01:48:21.030Z,3.40
2022-08-07T01:51:24.691Z,3.20
2022-08-07T01:54:09.114Z,3.22
2022-08-07T01:56:56.957Z,2.97
2022-08-07T01:59:36.437Z,3.70
2022-08-07T02:02:32.825Z,4.10
2022-08-07T02:05:08.992Z,3.15
2022-08-07T02:07:51.631Z,3.63
2022-08-07T02:10:23.465Z,3.97
2022-08-07T02:12:59.660Z,3.78
2022-08-07T02:15:28.144Z,4.13
2022-08-07T02:17:58.156Z,3.63
2022-08-07T02:20:33.433Z,3.65
2022-08-07T02:23:06.036Z,5.22
2022-08-07T02:26:26.721Z,3.22
2022-08-07T02:28:31.280Z,3.50
2022-08-07T02:31:18.672Z,4.55
2022-08-07T02:34:03.689Z,3.22
2022-08-07T02:36:41.245Z,3.55
2022-08-07T02:39:16.732Z,4.90
2022-08-07T02:41:56.613Z,4.10
2022-08-07T02:44:34.843Z,3.65
2022-08-07T02:47:07.795Z,3.17
2022-08-07T02:49:55.960Z,3.10
2022-08-07T02:52:33.097Z,5.05
2022-08-07T02:55:27.847Z,4.43
2022-08-07T02:58:02.865Z,4.25
2022-08-07T03:00:33.203Z,3.78
2022-08-07T03:03:13.562Z,4.15
2022-08-07T03:05:49.448Z,4.30
2022-08-07T03:08:17.392Z,3.10
2022-08-07T03:10:55.791Z,3.85
2022-08-07T03:13:26.224Z,3.67
2022-08-07T03:15:56.576Z,3.22
2022-08-07T03:18:34.487Z,4.97
2022-08-07T03:21:08.691Z,3.40
2022-08-07T03:24:26.832Z,3.58
2022-08-07T03:26:26.790Z,5.10
2022-08-07T03:28:55.530Z,2.65
2022-08-07T03:31:23.679Z,3.30
2022-08-07T03:34:02.340Z,4.13
2022-08-07T03:36:34.568Z,4.22
2022-08-07T03:39:13.924Z,4.05
2022-08-07T03:41:51.090Z,3.60
2022-08-07T03:44:21.639Z,4.90
2022-08-07T03:47:25.449Z,3.40
2022-08-07T03:50:06.933Z,3.38
2022-08-07T03:52:41.002Z,3.30
2022-08-07T03:55:09.088Z,3.75
2022-08-07T03:58:32.940Z,3.67
2022-08-07T04:01:17.262Z,4.47
2022-08-07T04:03:55.032Z,4.30
2022-08-07T04:07:17.549Z,6.65
2022-08-07T04:09:50.560Z,4.22
2022-08-07T04:12:26.286Z,4.97
2022-08-07T04:15:05.171Z,5.13
2022-08-07T04:18:32.045Z,5.07
2022-08-07T04:20:19.543Z,4.47
2022-08-07T04:23:01.400Z,5.85
2022-08-07T04:25:29.281Z,3.55
2022-08-07T04:28:01.044Z,5.67
2022-08-07T04:30:39.330Z,5.15
2022-08-07T04:33:15.526Z,4.40
2022-08-07T04:35:54.503Z,4.00
2022-08-07T04:38:21.874Z,4.53
2022-08-07T04:41:19.164Z,4.13
2022-08-07T04:44:12.956Z,4.47
2022-08-07T04:48:00.743Z,4.00
2022-08-07T04:51:00.804Z,4.93
2022-08-07T04:54:05.669Z,4.70
2022-08-07T04:58:12.229Z,4.47
2022-08-07T05:00:18.518Z,5.55
2022-08-07T05:03:16.844Z,6.22
2022-08-07T05:06:19.321Z,3.83
2022-08-07T05:09:02.459Z,4.38
2022-08-07T05:11:58.911Z,4.20
2022-08-07T05:14:55.282Z,6.93
2022-08-07T05:17:51.727Z,4.88
2022-08-07T05:20:31.049Z,5.00
2022-08-07T05:23:06.131Z,4.53
2022-08-07T05:26:11.142Z,4.80
2022-08-07T05:28:40.494Z,4.90
2022-08-07T05:31:22.075Z,7.65
2022-08-07T05:34:01.299Z,5.72
2022-08-07T05:36:52.717Z,4.72
2022-08-07T05:40:05.689Z,4.87
2022-08-07T05:42:37.056Z,5.43
2022-08-07T05:45:46.565Z,5.40
2022-08-07T05:48:26.405Z,6.70
2022-08-07T05:50:53.348Z,7.05
2022-08-07T05:54:12.380Z,6.53
2022-08-07T05:56:08.433Z,6.18
2022-08-07T05:58:37.706Z,6.53
2022-08-07T06:01:08.496Z,7.10
2022-08-07T06:04:01.224Z,8.68
2022-08-07T06:06:34.058Z,5.50
2022-08-07T06:09:04.690Z,8.35
2022-08-07T06:11:43.668Z,7.25
2022-08-07T06:14:20.934Z,7.13
2022-08-07T06:16:56.147Z,7.68
2022-08-07T06:19:57.531Z,8.67
2022-08-07T06:22:23.154Z,7.80
2022-08-07T06:25:10.185Z,7.82
2022-08-07T06:28:01.791Z,7.72
2022-08-07T06:30:36.045Z,7.80
2022-08-07T06:33:10.031Z,7.17
2022-08-07T06:35:47.604Z,7.70
2022-08-07T06:38:30.699Z,7.25
2022-08-07T06:41:00.645Z,9.05
2022-08-07T06:43:39.765Z,7.70
2022-08-07T06:46:14.863Z,6.57
2022-08-07T06:48:54.382Z,6.80
2022-08-07T06:51:33.298Z,6.97
2022-08-07T06:55:32.148Z,7.57
2022-08-07T06:56:55.268Z,7.82
2022-08-07T07:00:13.503Z,7.87
2022-08-07T07:02:53.259Z,8.07
2022-08-07T07:06:04.323Z,7.40
2022-08-07T07:08:18.583Z,7.40
2022-08-07T07:10:59.004Z,7.07
2022-08-07T07:13:56.103Z,8.47
2022-08-07T07:16:34.001Z,7.35
2022-08-07T07:19:54.551Z,7.72
2022-08-07T07:22:12.114Z,9.93
2022-08-07T07:25:02.592Z,6.05
2022-08-07T07:28:02.632Z,7.90
2022-08-07T07:30:40.036Z,7.03
2022-08-07T07:33:16.026Z,6.28
2022-08-07T07:36:04.498Z,5.82
2022-08-07T07:38:33.129Z,5.78
2022-08-07T07:41:05.281Z,6.80
2022-08-07T07:43:48.134Z,4.97
2022-08-07T07:46:37.523Z,4.97
2022-08-07T07:50:29.885Z,4.75
2022-08-07T07:52:16.112Z,3.70
2022-08-07T07:54:51.462Z,2.53
2022-08-07T07:57:51.480Z,3.53
2022-08-07T08:00:21.008Z,3.80
2022-08-07T08:03:16.845Z,3.42
2022-08-07T08:06:20.860Z,4.82
2022-08-07T08:08:49.240Z,3.97
2022-08-07T08:11:59.632Z,3.38
2022-08-07T08:14:06.929Z,4.57
2022-08-07T08:16:50.605Z,5.63
2022-08-07T08:20:18.658Z,4.13
2022-08-07T08:23:00.093Z,5.17
2022-08-07T08:25:49.473Z,3.25
2022-08-07T08:28:24.162Z,6.30
2022-08-07T08:32:18.409Z,5.50
2022-08-07T08:34:52.660Z,4.80
2022-08-07T08:37:59.888Z,4.97
2022-08-07T08:40:16.319Z,6.00
2022-08-07T08:42:58.518Z,4.72
2022-08-07T08:45:58.883Z,3.85
2022-08-07T08:49:05.051Z,4.07
2022-08-07T08:52:13.171Z,3.70
2022-08-07T08:54:35.249Z,3.78
2022-08-07T08:57:08.373Z,3.00
2022-08-07T08:59:48.442Z,3.60
2022-08-07T09:02:35.121Z,3.33
2022-08-07T09:05:32.338Z,4.10
2022-08-07T09:08:29.071Z,3.70
2022-08-07T09:11:24.652Z,2.40
2022-08-07T09:14:14.816Z,3.78
2022-08-07T09:17:17.285Z,3.55
2022-08-07T09:19:56.588Z,2.73
2022-08-07T09:24:32.117Z,3.38
2022-08-07T09:25:58.861Z,3.63
2022-08-07T09:30:05.064Z,3.25
2022-08-07T09:32:34.669Z,2.22
2022-08-07T09:35:04.591Z,2.60
2022-08-07T09:38:00.791Z,2.95
2022-08-07T09:40:35.483Z,3.17
2022-08-07T09:44:03.527Z,2.90
2022-08-07T09:47:50.852Z,4.40
2022-08-07T09:50:00.851Z,3.90
2022-08-07T09:53:41.347Z,2.47
2022-08-07T09:56:50.781Z,3.30
2022-08-07T09:59:37.101Z,2.75
2022-08-07T10:03:08.275Z,4.53
2022-08-07T10:05:59.154Z,2.40
2022-08-07T10:09:09.303Z,2.90
2022-08-07T10:12:18.109Z,3.65
2022-08-07T10:15:37.761Z,3.15
2022-08-07T10:18:28.660Z,2.80
2022-08-07T10:22:14.112Z,3.83
2022-08-07T10:24:46.181Z,2.78
2022-08-07T10:27:51.295Z,3.35
2022-08-07T10:30:41.024Z,2.60
2022-08-07T10:34:06.718Z,2.42
2022-08-07T10:37:59.991Z,3.23
2022-08-07T10:40:30.031Z,2.15
2022-08-07T10:43:02.961Z,2.33
2022-08-07T10:46:26.706Z,3.78
2022-08-07T10:53:22.648Z,1.70
2022-08-07T10:56:30.965Z,1.70
2022-08-07T10:59:30.442Z,2.13
2022-08-07T11:06:18.276Z,3.20
2022-08-07T11:10:10.232Z,1.90
2022-08-07T11:12:40.553Z,1.38
2022-08-07T11:15:31.538Z,1.63
2022-08-07T11:18:04.584Z,2.33
2022-08-07T11:20:47.194Z,2.25
2022-08-07T11:23:30.438Z,2.53
2022-08-07T11:26:16.106Z,2.80
2022-08-07T11:28:55.693Z,3.00
2022-08-07T11:31:27.144Z,2.25
2022-08-07T11:34:04.196Z,1.77
2022-08-07T11:37:06.691Z,1.73
2022-08-07T11:40:08.577Z,4.05
2022-08-07T11:43:02.059Z,1.67
2022-08-07T11:45:53.585Z,1.98
2022-08-07T11:49:50.065Z,3.60
2022-08-07T11:52:06.765Z,1.93
2022-08-07T11:56:09.010Z,3.63
2022-08-07T11:59:03.797Z,4.20
2022-08-07T12:02:20.618Z,2.35
2022-08-07T12:05:08.993Z,4.50
2022-08-07T12:07:53.400Z,1.80
2022-08-07T12:10:50.123Z,3.63
2022-08-07T12:14:21.949Z,2.05
2022-08-07T12:16:55.804Z,2.50
2022-08-07T12:20:02.807Z,2.97
2022-08-07T12:22:47.196Z,3.40
2022-08-07T12:26:02.932Z,2.28
2022-08-07T12:28:49.866Z,2.38
2022-08-07T12:32:01.972Z,3.42
2022-08-07T12:34:30.332Z,2.85
2022-08-07T12:36:59.378Z,2.20
2022-08-07T12:39:43.195Z,2.50
2022-08-07T12:42:27.235Z,2.25
2022-08-07T12:45:17.918Z,3.70
2022-08-07T12:48:04.254Z,2.30
2022-08-07T12:51:13.202Z,2.23
2022-08-07T12:54:38.345Z,4.13
2022-08-07T12:56:56.525Z,2.45
2022-08-07T12:59:30.499Z,2.65
2022-08-07T13:03:01.240Z,1.75
2022-08-07T13:06:03.197Z,1.70
2022-08-07T13:09:12.598Z,3.47
2022-08-07T13:12:16.135Z,1.80
2022-08-07T13:15:14.309Z,2.58
2022-08-07T13:18:43.083Z,2.40
2022-08-07T13:21:37.843Z,4.20
2022-08-07T13:25:03.243Z,3.80
2022-08-07T13:28:10.649Z,2.28
2022-08-07T13:30:48.849Z,2.20
2022-08-07T13:34:33.278Z,1.95
2022-08-07T13:37:20.657Z,2.63
2022-08-07T13:40:35.712Z,1.98
2022-08-07T13:43:04.340Z,2.20
2022-08-07T13:46:12.319Z,3.60
2022-08-07T13:48:58.403Z,3.33
2022-08-07T13:52:18.061Z,3.30
2022-08-07T13:54:33.463Z,2.45
2022-08-07T13:57:02.755Z,2.20
2022-08-07T13:59:36.607Z,1.92
2022-08-07T14:02:12.953Z,2.58
2022-08-07T14:05:05.254Z,3.97
2022-08-07T14:08:00.500Z,2.28
2022-08-07T14:11:08.352Z,2.20
2022-08-07T14:13:45.069Z,2.70
2022-08-07T14:16:16.106Z,2.33
2022-08-07T14:18:57.911Z,2.90
2022-08-07T14:22:02.873Z,1.92
2022-08-07T14:24:41.649Z,1.98
2022-08-07T14:28:20.938Z,3.05
2022-08-07T14:30:27.649Z,2.80
2022-08-07T14:33:04.404Z,2.43
2022-08-07T14:38:30.765Z,2.00
2022-08-07T14:41:02.153Z,1.98
2022-08-07T14:43:58.507Z,2.17
2022-08-07T14:49:56.990Z,2.80
2022-08-07T14:54:54.280Z,2.35
2022-08-07T14:57:24.933Z,3.90
2022-08-07T15:00:31.690Z,2.80
2022-08-07T15:03:16.630Z,2.70
2022-08-07T15:05:54.673Z,1.90
2022-08-07T15:08:50.105Z,3.80
2022-08-07T15:11:53.211Z,2.00
2022-08-07T15:14:18.504Z,2.27
2022-08-07T15:17:01.165Z,2.20
2022-08-07T15:22:29.354Z,4.20
2022-08-07T15:25:17.945Z,3.55
2022-08-07T15:28:32.962Z,2.47
2022-08-07T15:33:48.100Z,3.05
2022-08-07T15:37:02.534Z,4.88
2022-08-07T15:39:10.574Z,2.83
2022-08-07T15:42:46.282Z,5.63
2022-08-07T15:45:55.064Z,3.80
2022-08-07T15:48:15.453Z,3.70
2022-08-07T15:51:08.601Z,4.65
2022-08-07T15:53:52.065Z,4.35
2022-08-07T15:56:33.282Z,3.40
2022-08-07T15:59:03.985Z,4.45
2022-08-07T16:01:39.047Z,4.18
2022-08-07T16:04:15.553Z,3.80
2022-08-07T16:06:51.116Z,4.38
2022-08-07T16:09:53.997Z,5.10
2022-08-07T16:12:41.765Z,3.95
2022-08-07T16:15:57.444Z,5.55
2022-08-07T16:18:49.379Z,4.57
2022-08-07T16:22:03.403Z,2.33
2022-08-07T16:24:37.520Z,4.13
2022-08-07T16:27:40.723Z,3.17
2022-08-07T16:30:30.659Z,2.85
2022-08-07T16:34:02.601Z,5.13
2022-08-07T16:37:01.743Z,4.20
2022-08-07T16:40:12.842Z,6.20
2022-08-07T16:43:13.430Z,8.57
2022-08-07T16:47:02.793Z,5.95
2022-08-07T16:50:26.547Z,5.05
2022-08-07T16:52:55.788Z,4.75
2022-08-07T16:55:47.198Z,3.53
2022-08-07T16:58:22.449Z,4.97
2022-08-07T17:01:08.965Z,6.00
2022-08-07T17:04:09.864Z,5.20
2022-08-07T17:07:13.450Z,6.63
2022-08-07T17:10:06.098Z,3.53
2022-08-07T17:12:44.106Z,4.32
2022-08-07T17:15:44.448Z,3.25
2022-08-07T17:18:34.908Z,4.68
2022-08-07T17:21:03.849Z,6.05
2022-08-07T17:24:33.848Z,3.93
2022-08-07T17:27:08.563Z,4.72
2022-08-07T17:30:14.010Z,3.85
2022-08-07T17:36:57.634Z,4.43
2022-08-07T17:39:57.607Z,5.67
2022-08-07T17:42:58.405Z,4.57
2022-08-07T17:45:55.858Z,5.50
2022-08-07T17:48:57.929Z,5.45
2022-08-07T17:51:49.704Z,3.55
2022-08-07T17:54:55.384Z,4.40
2022-08-07T17:58:01.410Z,3.97
2022-08-07T18:00:48.974Z,6.60
2022-08-07T18:03:25.514Z,8.70
2022-08-07T18:06:16.642Z,5.93
2022-08-07T18:09:02.008Z,3.77
2022-08-07T18:12:06.651Z,3.22
2022-08-07T18:15:08.852Z,3.65
2022-08-07T18:18:47.501Z,4.60
2022-08-07T18:21:42.360Z,3.75
2022-08-07T18:24:11.209Z,4.87
2022-08-07T18:27:38.764Z,4.20
2022-08-07T18:30:31.798Z,5.47
2022-08-07T18:33:35.712Z,4.75
2022-08-07T18:36:32.744Z,3.88
2022-08-07T18:40:06.590Z,3.20
2022-08-07T18:42:27.752Z,3.60
2022-08-07T18:45:43.142Z,4.05
2022-08-07T18:48:10.018Z,4.93
2022-08-07T18:51:18.116Z,5.05
2022-08-07T18:54:27.880Z,4.57
2022-08-07T18:57:36.933Z,6.05
2022-08-07T19:00:32.690Z,4.05
2022-08-07T19:03:18.201Z,6.30
2022-08-07T19:06:02.674Z,3.90
2022-08-07T19:08:46.343Z,4.20
2022-08-07T19:11:36.173Z,4.57
2022-08-07T19:14:51.144Z,4.25
2022-08-07T19:17:54.311Z,4.78
2022-08-07T19:20:32.599Z,5.32
2022-08-07T19:23:18.788Z,4.27
2022-08-07T19:26:24.722Z,2.50
2022-08-07T19:30:58.030Z,3.22
2022-08-07T19:32:10.366Z,5.35
2022-08-07T19:34:47.939Z,4.78
2022-08-07T19:38:01.108Z,5.47
2022-08-07T19:40:49.982Z,5.43
2022-08-07T19:43:44.145Z,3.60
2022-08-07T19:46:29.012Z,5.38
2022-08-07T19:49:05.256Z,3.63
2022-08-07T19:51:52.736Z,3.90
2022-08-07T19:54:31.282Z,3.88
2022-08-07T19:58:02.756Z,3.42
2022-08-07T20:00:29.091Z,4.78
2022-08-07T20:03:01.944Z,5.95
2022-08-07T20:06:01.028Z,3.10
2022-08-07T20:08:30.231Z,5.90
2022-08-07T20:11:03.958Z,3.95
2022-08-07T20:14:07.306Z,7.57
2022-08-07T20:16:54.457Z,4.78
2022-08-07T20:19:28.905Z,3.20
2022-08-07T20:22:34.358Z,5.18
2022-08-07T20:25:12.506Z,4.35
2022-08-07T20:27:58.150Z,3.75
2022-08-07T20:30:37.062Z,4.20
2022-08-07T20:33:09.123Z,7.03
2022-08-07T20:36:01.503Z,6.88
2022-08-07T20:38:30.172Z,5.07
2022-08-07T20:41:14.555Z,5.35
2022-08-07T20:43:47.737Z,5.22
2022-08-07T20:46:26.044Z,5.80
2022-08-07T20:50:01.030Z,5.13
2022-08-07T20:52:50.510Z,3.63
2022-08-07T20:55:14.941Z,5.13
2022-08-07T20:58:35.380Z,5.55
2022-08-07T21:02:00.197Z,8.23
2022-08-07T21:04:29.580Z,6.45
2022-08-07T21:07:04.396Z,6.65
2022-08-07T21:09:53.068Z,5.63
2022-08-07T21:12:35.596Z,5.60
2022-08-07T21:15:18.878Z,10.57
2022-08-07T21:18:20.848Z,5.60
2022-08-07T21:20:56.223Z,6.03
2022-08-07T21:23:42.901Z,6.72
2022-08-07T21:26:35.638Z,5.10
2022-08-07T21:29:39.392Z,7.20
2022-08-07T21:32:43.006Z,6.63
2022-08-07T21:35:17.425Z,5.88
2022-08-07T21:38:07.972Z,5.03
2022-08-07T21:41:37.986Z,7.05
2022-08-07T21:44:53.194Z,5.03
2022-08-07T21:47:34.671Z,6.40
2022-08-07T21:50:14.432Z,8.15
2022-08-07T21:53:07.800Z,7.40
2022-08-07T21:56:07.392Z,7.25
2022-08-07T22:00:04.051Z,7.20
2022-08-07T22:03:06.444Z,8.52
2022-08-07T22:05:55.283Z,6.43
2022-08-07T22:08:26.633Z,8.13
2022-08-07T22:10:59.781Z,7.35
2022-08-07T22:16:47.728Z,7.30
2022-08-07T22:19:34.076Z,8.00
2022-08-07T22:22:30.006Z,6.95
2022-08-07T22:25:27.088Z,7.22
2022-08-07T22:28:33.611Z,6.90
2022-08-07T22:31:45.088Z,7.60
2022-08-07T22:35:11.516Z,8.18
2022-08-07T22:38:02.005Z,9.70
2022-08-07T22:41:07.438Z,6.68
2022-08-07T22:43:56.058Z,7.50
2022-08-07T22:47:08.605Z,9.20
2022-08-07T22:50:20.709Z,8.75
2022-08-07T22:53:15.234Z,7.55
2022-08-07T22:56:01.196Z,6.63
2022-08-07T22:58:57.693Z,8.57
2022-08-07T23:02:15.362Z,7.20
2022-08-07T23:06:09.905Z,6.82
2022-08-07T23:07:53.064Z,9.35
2022-08-07T23:10:42.171Z,7.20
2022-08-07T23:13:48.474Z,8.33
2022-08-07T23:16:46.513Z,7.80
2022-08-07T23:24:05.534Z,7.10
2022-08-07T23:27:10.789Z,8.00
2022-08-07T23:30:38.439Z,8.00
2022-08-07T23:34:34.012Z,8.02
2022-08-07T23:36:44.394Z,9.30
2022-08-07T23:40:08.480Z,7.63
2022-08-07T23:43:07.815Z,8.50
2022-08-07T23:46:13.441Z,10.40
2022-08-07T23:49:17.528Z,7.68
2022-08-07T23:53:06.716Z,8.50
2022-08-07T23:54:53.749Z,8.75
2022-08-07T23:57:34.880Z,7.60
